sensor_id;sensor_type;location;lat;lon;timestamp;P1;durP1;ratioP1;P2;durP2;ratioP2
58518;SDS011;44310;48.106;12.008;2022-12-11T00:00:15;18.52;;;8.02;;
58518;SDS011;44310;48.106;12.008;2022-12-11T00:02:42;24.17;;;8.87;;
58518;SDS011;44310;48.106;12.008;2022-12-11T00:05:09;15.88;;;8.18;;
58518;SDS011;44310;48.106;12.008;2022-12-11T00:07:37;16.27;;;7.80;;
58518;SDS011;44310;48.106;12.008;2022-12-11T00:10:04;17.60;;;8.02;;
58518;SDS011;44310;48.106;12.008;2022-12-11T00:12:31;19.60;;;8.52;;
58518;SDS011;44310;48.106;12.008;2022-12-11T00:14:59;14.05;;;7.82;;
58518;SDS011;44310;48.106;12.008;2022-12-11T00:17:26;14.52;;;7.30;;
58518;SDS011;44310;48.106;12.008;2022-12-11T00:19:53;19.95;;;8.10;;
58518;SDS011;44310;48.106;12.008;2022-12-11T00:22:20;15.40;;;7.18;;
58518;SDS011;44310;48.106;12.008;2022-12-11T00:24:47;9.90;;;6.45;;
58518;SDS011;44310;48.106;12.008;2022-12-11T00:27:14;12.87;;;6.90;;
58518;SDS011;44310;48.106;12.008;2022-12-11T00:29:41;15.73;;;7.32;;
58518;SDS011;44310;48.106;12.008;2022-12-11T00:32:08;25.70;;;8.50;;
58518;SDS011;44310;48.106;12.008;2022-12-11T00:34:36;25.38;;;8.60;;
58518;SDS011;44310;48.106;12.008;2022-12-11T00:37:03;13.00;;;7.22;;
58518;SDS011;44310;48.106;12.008;2022-12-11T00:39:30;15.95;;;7.22;;
58518;SDS011;44310;48.106;12.008;2022-12-11T00:41:57;16.35;;;7.30;;
58518;SDS011;44310;48.106;12.008;2022-12-11T00:44:24;24.87;;;9.30;;
58518;SDS011;44310;48.106;12.008;2022-12-11T00:46:51;18.73;;;7.97;;
58518;SDS011;44310;48.106;12.008;2022-12-11T00:49:18;11.73;;;7.60;;
58518;SDS011;44310;48.106;12.008;2022-12-11T00:51:45;16.20;;;7.70;;
58518;SDS011;44310;48.106;12.008;2022-12-11T00:54:12;16.27;;;6.90;;
58518;SDS011;44310;48.106;12.008;2022-12-11T00:56:39;11.75;;;6.95;;
58518;SDS011;44310;48.106;12.008;2022-12-11T00:59:07;14.27;;;7.13;;
58518;SDS011;44310;48.106;12.008;2022-12-11T01:01:35;11.32;;;7.00;;
58518;SDS011;44310;48.106;12.008;2022-12-11T01:04:02;10.05;;;7.20;;
58518;SDS011;44310;48.106;12.008;2022-12-11T01:06:29;10.93;;;6.88;;
58518;SDS011;44310;48.106;12.008;2022-12-11T01:08:56;9.70;;;6.38;;
58518;SDS011;44310;48.106;12.008;2022-12-11T01:11:42;20.83;;;8.45;;
58518;SDS011;44310;48.106;12.008;2022-12-11T01:14:09;17.25;;;7.28;;
58518;SDS011;44310;48.106;12.008;2022-12-11T01:16:37;17.67;;;7.75;;
58518;SDS011;44310;48.106;12.008;2022-12-11T01:19:04;14.25;;;7.55;;
58518;SDS011;44310;48.106;12.008;2022-12-11T01:21:31;15.20;;;7.53;;
58518;SDS011;44310;48.106;12.008;2022-12-11T01:23:58;13.90;;;6.80;;
58518;SDS011;44310;48.106;12.008;2022-12-11T01:26:26;12.63;;;6.30;;
58518;SDS011;44310;48.106;12.008;2022-12-11T01:28:53;18.98;;;7.57;;
58518;SDS011;44310;48.106;12.008;2022-12-11T01:31:20;10.38;;;6.95;;
58518;SDS011;44310;48.106;12.008;2022-12-11T01:33:48;6.95;;;6.00;;
58518;SDS011;44310;48.106;12.008;2022-12-11T01:36:16;8.98;;;6.18;;
58518;SDS011;44310;48.106;12.008;2022-12-11T01:38:45;8.70;;;6.03;;
58518;SDS011;44310;48.106;12.008;2022-12-11T01:41:13;12.27;;;6.22;;
58518;SDS011;44310;48.106;12.008;2022-12-11T01:44:01;12.93;;;6.93;;
58518;SDS011;44310;48.106;12.008;2022-12-11T01:46:29;16.27;;;6.55;;
58518;SDS011;44310;48.106;12.008;2022-12-11T01:48:57;9.93;;;6.55;;
58518;SDS011;44310;48.106;12.008;2022-12-11T01:51:27;28.75;;;9.30;;
58518;SDS011;44310;48.106;12.008;2022-12-11T01:53:57;15.77;;;7.07;;
58518;SDS011;44310;48.106;12.008;2022-12-11T01:56:28;14.93;;;6.85;;
58518;SDS011;44310;48.106;12.008;2022-12-11T01:58:58;16.42;;;7.40;;
58518;SDS011;44310;48.106;12.008;2022-12-11T02:04:08;15.05;;;7.78;;
58518;SDS011;44310;48.106;12.008;2022-12-11T02:06:37;17.25;;;7.07;;
58518;SDS011;44310;48.106;12.008;2022-12-11T02:09:11;13.65;;;6.57;;
58518;SDS011;44310;48.106;12.008;2022-12-11T02:11:54;15.25;;;7.03;;
58518;SDS011;44310;48.106;12.008;2022-12-11T02:20:43;10.07;;;6.45;;
58518;SDS011;44310;48.106;12.008;2022-12-11T02:28:57;18.65;;;7.30;;
58518;SDS011;44310;48.106;12.008;2022-12-11T02:34:02;10.13;;;5.68;;
58518;SDS011;44310;48.106;12.008;2022-12-11T02:36:37;8.15;;;5.20;;
58518;SDS011;44310;48.106;12.008;2022-12-11T02:39:08;18.57;;;7.50;;
58518;SDS011;44310;48.106;12.008;2022-12-11T02:41:39;12.57;;;6.18;;
58518;SDS011;44310;48.106;12.008;2022-12-11T02:44:13;17.00;;;7.13;;
58518;SDS011;44310;48.106;12.008;2022-12-11T02:46:42;13.60;;;6.50;;
58518;SDS011;44310;48.106;12.008;2022-12-11T02:49:11;10.23;;;6.00;;
58518;SDS011;44310;48.106;12.008;2022-12-11T02:51:40;26.33;;;9.40;;
58518;SDS011;44310;48.106;12.008;2022-12-11T02:54:13;16.77;;;7.32;;
58518;SDS011;44310;48.106;12.008;2022-12-11T02:59:28;20.77;;;7.00;;
58518;SDS011;44310;48.106;12.008;2022-12-11T03:02:01;18.20;;;7.43;;
58518;SDS011;44310;48.106;12.008;2022-12-11T03:04:29;18.77;;;6.80;;
58518;SDS011;44310;48.106;12.008;2022-12-11T03:06:58;19.13;;;6.63;;
58518;SDS011;44310;48.106;12.008;2022-12-11T03:09:41;23.17;;;7.88;;
58518;SDS011;44310;48.106;12.008;2022-12-11T03:12:10;20.08;;;6.00;;
58518;SDS011;44310;48.106;12.008;2022-12-11T03:14:39;11.30;;;5.27;;
58518;SDS011;44310;48.106;12.008;2022-12-11T03:19:45;14.73;;;5.50;;
58518;SDS011;44310;48.106;12.008;2022-12-11T03:22:22;9.55;;;5.35;;
58518;SDS011;44310;48.106;12.008;2022-12-11T03:25:00;11.90;;;5.27;;
58518;SDS011;44310;48.106;12.008;2022-12-11T03:27:32;9.02;;;5.43;;
58518;SDS011;44310;48.106;12.008;2022-12-11T03:30:14;7.63;;;4.63;;
58518;SDS011;44310;48.106;12.008;2022-12-11T03:32:48;7.90;;;5.00;;
58518;SDS011;44310;48.106;12.008;2022-12-11T03:41:15;7.18;;;4.55;;
58518;SDS011;44310;48.106;12.008;2022-12-11T03:43:45;5.97;;;4.60;;
58518;SDS011;44310;48.106;12.008;2022-12-11T03:46:15;6.03;;;4.15;;
58518;SDS011;44310;48.106;12.008;2022-12-11T03:48:44;8.37;;;4.80;;
58518;SDS011;44310;48.106;12.008;2022-12-11T03:51:13;8.65;;;4.30;;
58518;SDS011;44310;48.106;12.008;2022-12-11T03:53:42;5.35;;;4.00;;
58518;SDS011;44310;48.106;12.008;2022-12-11T03:56:11;6.63;;;4.70;;
58518;SDS011;44310;48.106;12.008;2022-12-11T03:58:40;5.13;;;4.30;;
58518;SDS011;44310;48.106;12.008;2022-12-11T04:01:07;4.50;;;4.03;;
58518;SDS011;44310;48.106;12.008;2022-12-11T04:03:36;5.78;;;4.55;;
58518;SDS011;44310;48.106;12.008;2022-12-11T04:06:04;7.40;;;4.03;;
58518;SDS011;44310;48.106;12.008;2022-12-11T04:08:31;7.80;;;4.50;;
58518;SDS011;44310;48.106;12.008;2022-12-11T04:10:58;6.67;;;4.23;;
58518;SDS011;44310;48.106;12.008;2022-12-11T04:13:44;11.85;;;4.93;;
58518;SDS011;44310;48.106;12.008;2022-12-11T04:16:11;5.73;;;4.13;;
58518;SDS011;44310;48.106;12.008;2022-12-11T04:18:38;11.07;;;5.15;;
58518;SDS011;44310;48.106;12.008;2022-12-11T04:21:24;20.83;;;6.77;;
58518;SDS011;44310;48.106;12.008;2022-12-11T04:24:10;15.18;;;5.88;;
58518;SDS011;44310;48.106;12.008;2022-12-11T04:26:41;12.00;;;5.20;;
58518;SDS011;44310;48.106;12.008;2022-12-11T04:29:13;10.15;;;4.88;;
58518;SDS011;44310;48.106;12.008;2022-12-11T04:31:40;9.00;;;4.53;;
58518;SDS011;44310;48.106;12.008;2022-12-11T04:34:07;11.98;;;4.88;;
58518;SDS011;44310;48.106;12.008;2022-12-11T04:36:35;7.75;;;4.30;;
58518;SDS011;44310;48.106;12.008;2022-12-11T04:39:03;10.73;;;4.63;;
58518;SDS011;44310;48.106;12.008;2022-12-11T04:41:32;9.73;;;4.20;;
58518;SDS011;44310;48.106;12.008;2022-12-11T04:44:00;8.57;;;4.22;;
58518;SDS011;44310;48.106;12.008;2022-12-11T04:46:27;6.18;;;4.00;;
58518;SDS011;44310;48.106;12.008;2022-12-11T04:48:54;7.72;;;4.03;;
58518;SDS011;44310;48.106;12.008;2022-12-11T04:51:23;4.00;;;3.60;;
58518;SDS011;44310;48.106;12.008;2022-12-11T04:53:51;8.18;;;4.38;;
58518;SDS011;44310;48.106;12.008;2022-12-11T04:56:19;10.03;;;4.40;;
58518;SDS011;44310;48.106;12.008;2022-12-11T04:58:47;12.13;;;5.72;;
58518;SDS011;44310;48.106;12.008;2022-12-11T05:01:18;13.68;;;5.10;;
58518;SDS011;44310;48.106;12.008;2022-12-11T05:03:47;7.13;;;3.95;;
58518;SDS011;44310;48.106;12.008;2022-12-11T05:06:14;11.60;;;4.35;;
58518;SDS011;44310;48.106;12.008;2022-12-11T05:08:42;8.73;;;4.20;;
58518;SDS011;44310;48.106;12.008;2022-12-11T05:11:11;5.18;;;3.60;;
58518;SDS011;44310;48.106;12.008;2022-12-11T05:13:40;6.38;;;3.90;;
58518;SDS011;44310;48.106;12.008;2022-12-11T05:16:09;5.85;;;3.67;;
58518;SDS011;44310;48.106;12.008;2022-12-11T05:18:37;6.72;;;3.33;;
58518;SDS011;44310;48.106;12.008;2022-12-11T05:21:09;5.85;;;3.85;;
58518;SDS011;44310;48.106;12.008;2022-12-11T05:23:38;8.93;;;4.07;;
58518;SDS011;44310;48.106;12.008;2022-12-11T05:26:06;10.07;;;4.00;;
58518;SDS011;44310;48.106;12.008;2022-12-11T05:28:37;7.83;;;3.80;;
58518;SDS011;44310;48.106;12.008;2022-12-11T05:31:06;7.40;;;3.70;;
58518;SDS011;44310;48.106;12.008;2022-12-11T05:33:37;4.25;;;3.22;;
58518;SDS011;44310;48.106;12.008;2022-12-11T05:36:05;7.47;;;3.60;;
58518;SDS011;44310;48.106;12.008;2022-12-11T05:38:33;4.10;;;3.40;;
58518;SDS011;44310;48.106;12.008;2022-12-11T05:41:01;7.63;;;3.60;;
58518;SDS011;44310;48.106;12.008;2022-12-11T05:43:30;4.57;;;3.40;;
58518;SDS011;44310;48.106;12.008;2022-12-11T05:46:06;5.50;;;3.55;;
58518;SDS011;44310;48.106;12.008;2022-12-11T05:48:36;26.05;;;6.63;;
58518;SDS011;44310;48.106;12.008;2022-12-11T05:51:04;8.32;;;4.00;;
58518;SDS011;44310;48.106;12.008;2022-12-11T05:53:37;15.18;;;5.00;;
58518;SDS011;44310;48.106;12.008;2022-12-11T05:56:06;16.05;;;5.00;;
58518;SDS011;44310;48.106;12.008;2022-12-11T05:58:36;14.23;;;4.68;;
58518;SDS011;44310;48.106;12.008;2022-12-11T06:01:14;14.43;;;4.93;;
58518;SDS011;44310;48.106;12.008;2022-12-11T06:03:46;21.08;;;7.07;;
58518;SDS011;44310;48.106;12.008;2022-12-11T06:06:14;16.50;;;5.25;;
58518;SDS011;44310;48.106;12.008;2022-12-11T06:08:41;14.87;;;4.83;;
58518;SDS011;44310;48.106;12.008;2022-12-11T06:11:08;16.73;;;5.13;;
58518;SDS011;44310;48.106;12.008;2022-12-11T06:13:37;13.30;;;4.22;;
58518;SDS011;44310;48.106;12.008;2022-12-11T06:16:04;12.13;;;4.60;;
58518;SDS011;44310;48.106;12.008;2022-12-11T06:18:36;19.30;;;5.50;;
58518;SDS011;44310;48.106;12.008;2022-12-11T06:21:12;19.23;;;5.50;;
58518;SDS011;44310;48.106;12.008;2022-12-11T06:23:43;12.57;;;4.75;;
58518;SDS011;44310;48.106;12.008;2022-12-11T06:26:13;25.40;;;5.50;;
58518;SDS011;44310;48.106;12.008;2022-12-11T06:28:41;21.00;;;5.93;;
58518;SDS011;44310;48.106;12.008;2022-12-11T06:31:08;15.13;;;4.18;;
58518;SDS011;44310;48.106;12.008;2022-12-11T06:33:35;12.90;;;4.28;;
58518;SDS011;44310;48.106;12.008;2022-12-11T06:36:03;9.18;;;3.80;;
58518;SDS011;44310;48.106;12.008;2022-12-11T06:38:32;9.52;;;4.05;;
58518;SDS011;44310;48.106;12.008;2022-12-11T06:41:00;7.32;;;3.72;;
58518;SDS011;44310;48.106;12.008;2022-12-11T06:43:30;16.73;;;5.25;;
58518;SDS011;44310;48.106;12.008;2022-12-11T06:45:58;12.43;;;4.40;;
58518;SDS011;44310;48.106;12.008;2022-12-11T06:48:30;9.43;;;4.57;;
58518;SDS011;44310;48.106;12.008;2022-12-11T06:50:57;9.75;;;4.00;;
58518;SDS011;44310;48.106;12.008;2022-12-11T06:53:24;10.75;;;3.90;;
58518;SDS011;44310;48.106;12.008;2022-12-11T06:55:51;8.23;;;3.57;;
58518;SDS011;44310;48.106;12.008;2022-12-11T06:58:18;9.03;;;3.90;;
58518;SDS011;44310;48.106;12.008;2022-12-11T07:00:45;11.50;;;4.20;;
58518;SDS011;44310;48.106;12.008;2022-12-11T07:03:12;6.85;;;3.80;;
58518;SDS011;44310;48.106;12.008;2022-12-11T07:05:40;10.77;;;4.07;;
58518;SDS011;44310;48.106;12.008;2022-12-11T07:08:07;9.52;;;3.70;;
58518;SDS011;44310;48.106;12.008;2022-12-11T07:10:34;8.00;;;3.72;;
58518;SDS011;44310;48.106;12.008;2022-12-11T07:13:01;16.63;;;5.50;;
58518;SDS011;44310;48.106;12.008;2022-12-11T07:15:28;13.98;;;5.25;;
58518;SDS011;44310;48.106;12.008;2022-12-11T07:17:55;12.85;;;4.53;;
58518;SDS011;44310;48.106;12.008;2022-12-11T07:20:22;13.63;;;4.70;;
58518;SDS011;44310;48.106;12.008;2022-12-11T07:22:49;14.82;;;5.15;;
58518;SDS011;44310;48.106;12.008;2022-12-11T07:25:16;13.18;;;4.97;;
58518;SDS011;44310;48.106;12.008;2022-12-11T07:27:43;16.17;;;5.25;;
58518;SDS011;44310;48.106;12.008;2022-12-11T07:30:10;13.30;;;4.55;;
58518;SDS011;44310;48.106;12.008;2022-12-11T07:32:38;11.10;;;4.18;;
58518;SDS011;44310;48.106;12.008;2022-12-11T07:35:05;14.10;;;4.55;;
58518;SDS011;44310;48.106;12.008;2022-12-11T07:37:33;15.00;;;4.83;;
58518;SDS011;44310;48.106;12.008;2022-12-11T07:40:00;19.87;;;5.47;;
58518;SDS011;44310;48.106;12.008;2022-12-11T07:42:27;18.97;;;6.13;;
58518;SDS011;44310;48.106;12.008;2022-12-11T07:44:54;14.20;;;4.47;;
58518;SDS011;44310;48.106;12.008;2022-12-11T07:47:21;12.07;;;4.47;;
58518;SDS011;44310;48.106;12.008;2022-12-11T07:49:48;14.10;;;5.03;;
58518;SDS011;44310;48.106;12.008;2022-12-11T07:52:15;14.90;;;5.07;;
58518;SDS011;44310;48.106;12.008;2022-12-11T07:54:42;11.65;;;4.40;;
58518;SDS011;44310;48.106;12.008;2022-12-11T07:57:09;15.50;;;5.00;;
58518;SDS011;44310;48.106;12.008;2022-12-11T07:59:40;12.43;;;4.75;;
58518;SDS011;44310;48.106;12.008;2022-12-11T08:02:09;7.00;;;4.03;;
58518;SDS011;44310;48.106;12.008;2022-12-11T08:04:37;11.35;;;4.05;;
58518;SDS011;44310;48.106;12.008;2022-12-11T08:07:04;10.10;;;4.22;;
58518;SDS011;44310;48.106;12.008;2022-12-11T08:09:31;11.20;;;4.00;;
58518;SDS011;44310;48.106;12.008;2022-12-11T08:11:59;10.18;;;4.35;;
58518;SDS011;44310;48.106;12.008;2022-12-11T08:14:26;9.10;;;3.78;;
58518;SDS011;44310;48.106;12.008;2022-12-11T08:16:53;10.35;;;4.03;;
58518;SDS011;44310;48.106;12.008;2022-12-11T08:19:20;21.65;;;6.35;;
58518;SDS011;44310;48.106;12.008;2022-12-11T08:21:47;54.63;;;12.52;;
58518;SDS011;44310;48.106;12.008;2022-12-11T08:24:14;29.63;;;7.32;;
58518;SDS011;44310;48.106;12.008;2022-12-11T08:26:46;25.98;;;6.65;;
58518;SDS011;44310;48.106;12.008;2022-12-11T08:29:13;25.20;;;6.90;;
58518;SDS011;44310;48.106;12.008;2022-12-11T08:31:41;21.40;;;6.03;;
58518;SDS011;44310;48.106;12.008;2022-12-11T08:34:08;14.85;;;5.00;;
58518;SDS011;44310;48.106;12.008;2022-12-11T08:36:39;13.32;;;4.70;;
58518;SDS011;44310;48.106;12.008;2022-12-11T08:39:06;13.38;;;5.10;;
58518;SDS011;44310;48.106;12.008;2022-12-11T08:41:33;15.77;;;5.80;;
58518;SDS011;44310;48.106;12.008;2022-12-11T08:44:01;16.30;;;4.72;;
58518;SDS011;44310;48.106;12.008;2022-12-11T08:46:29;17.88;;;5.85;;
58518;SDS011;44310;48.106;12.008;2022-12-11T08:48:57;51.67;;;12.55;;
58518;SDS011;44310;48.106;12.008;2022-12-11T08:51:26;35.63;;;8.38;;
58518;SDS011;44310;48.106;12.008;2022-12-11T08:53:55;29.00;;;7.47;;
58518;SDS011;44310;48.106;12.008;2022-12-11T08:56:23;44.10;;;9.60;;
58518;SDS011;44310;48.106;12.008;2022-12-11T08:58:51;54.17;;;11.73;;
58518;SDS011;44310;48.106;12.008;2022-12-11T09:01:20;41.15;;;10.52;;
58518;SDS011;44310;48.106;12.008;2022-12-11T09:03:50;47.45;;;10.00;;
58518;SDS011;44310;48.106;12.008;2022-12-11T09:06:20;48.83;;;9.90;;
58518;SDS011;44310;48.106;12.008;2022-12-11T09:08:48;40.33;;;9.35;;
58518;SDS011;44310;48.106;12.008;2022-12-11T09:11:23;30.87;;;8.90;;
58518;SDS011;44310;48.106;12.008;2022-12-11T09:13:52;31.37;;;7.80;;
58518;SDS011;44310;48.106;12.008;2022-12-11T09:16:20;26.50;;;7.38;;
58518;SDS011;44310;48.106;12.008;2022-12-11T09:18:49;19.23;;;6.57;;
58518;SDS011;44310;48.106;12.008;2022-12-11T09:21:18;23.23;;;7.03;;
58518;SDS011;44310;48.106;12.008;2022-12-11T09:23:46;20.60;;;6.73;;
58518;SDS011;44310;48.106;12.008;2022-12-11T09:26:15;23.42;;;6.63;;
58518;SDS011;44310;48.106;12.008;2022-12-11T09:28:43;30.75;;;7.63;;
58518;SDS011;44310;48.106;12.008;2022-12-11T09:31:14;21.70;;;6.72;;
58518;SDS011;44310;48.106;12.008;2022-12-11T09:33:49;23.13;;;6.82;;
58518;SDS011;44310;48.106;12.008;2022-12-11T09:36:17;19.85;;;6.07;;
58518;SDS011;44310;48.106;12.008;2022-12-11T09:38:45;18.40;;;5.60;;
58518;SDS011;44310;48.106;12.008;2022-12-11T09:41:25;20.90;;;6.40;;
58518;SDS011;44310;48.106;12.008;2022-12-11T09:44:23;18.55;;;6.20;;
58518;SDS011;44310;48.106;12.008;2022-12-11T09:50:04;16.70;;;5.70;;
58518;SDS011;44310;48.106;12.008;2022-12-11T09:55:05;17.27;;;6.10;;
58518;SDS011;44310;48.106;12.008;2022-12-11T09:58:24;13.80;;;5.35;;
58518;SDS011;44310;48.106;12.008;2022-12-11T10:00:47;16.27;;;5.40;;
58518;SDS011;44310;48.106;12.008;2022-12-11T10:06:24;14.65;;;5.07;;
58518;SDS011;44310;48.106;12.008;2022-12-11T10:14:39;12.02;;;4.75;;
58518;SDS011;44310;48.106;12.008;2022-12-11T10:17:19;10.50;;;4.50;;
58518;SDS011;44310;48.106;12.008;2022-12-11T10:19:59;9.23;;;4.80;;
58518;SDS011;44310;48.106;12.008;2022-12-11T10:22:36;9.25;;;4.72;;
58518;SDS011;44310;48.106;12.008;2022-12-11T10:25:09;6.28;;;4.40;;
58518;SDS011;44310;48.106;12.008;2022-12-11T10:27:44;7.88;;;4.13;;
58518;SDS011;44310;48.106;12.008;2022-12-11T10:35:28;6.53;;;4.32;;
58518;SDS011;44310;48.106;12.008;2022-12-11T10:38:03;8.73;;;4.67;;
58518;SDS011;44310;48.106;12.008;2022-12-11T10:41:20;16.85;;;6.30;;
58518;SDS011;44310;48.106;12.008;2022-12-11T10:43:43;16.17;;;5.53;;
58518;SDS011;44310;48.106;12.008;2022-12-11T10:46:15;13.55;;;5.85;;
58518;SDS011;44310;48.106;12.008;2022-12-11T10:49:00;18.77;;;6.03;;
58518;SDS011;44310;48.106;12.008;2022-12-11T10:54:03;13.47;;;5.80;;
58518;SDS011;44310;48.106;12.008;2022-12-11T10:56:44;20.30;;;7.28;;
58518;SDS011;44310;48.106;12.008;2022-12-11T10:59:59;20.92;;;7.30;;
58518;SDS011;44310;48.106;12.008;2022-12-11T11:02:06;21.17;;;6.90;;
58518;SDS011;44310;48.106;12.008;2022-12-11T11:04:49;16.70;;;6.53;;
58518;SDS011;44310;48.106;12.008;2022-12-11T11:09:47;16.33;;;6.38;;
58518;SDS011;44310;48.106;12.008;2022-12-11T11:12:22;21.33;;;7.33;;
58518;SDS011;44310;48.106;12.008;2022-12-11T11:14:59;13.43;;;6.45;;
58518;SDS011;44310;48.106;12.008;2022-12-11T11:17:31;12.48;;;5.55;;
58518;SDS011;44310;48.106;12.008;2022-12-11T11:20:21;19.13;;;6.93;;
58518;SDS011;44310;48.106;12.008;2022-12-11T11:22:52;20.77;;;7.07;;
58518;SDS011;44310;48.106;12.008;2022-12-11T11:25:25;15.13;;;6.13;;
58518;SDS011;44310;48.106;12.008;2022-12-11T11:28:02;13.25;;;5.53;;
58518;SDS011;44310;48.106;12.008;2022-12-11T11:30:35;13.85;;;5.95;;
58518;SDS011;44310;48.106;12.008;2022-12-11T11:33:11;10.95;;;5.35;;
58518;SDS011;44310;48.106;12.008;2022-12-11T11:35:39;7.63;;;4.97;;
58518;SDS011;44310;48.106;12.008;2022-12-11T11:38:17;8.82;;;5.68;;
58518;SDS011;44310;48.106;12.008;2022-12-11T11:43:42;8.37;;;4.83;;
58518;SDS011;44310;48.106;12.008;2022-12-11T11:46:13;7.90;;;4.70;;
58518;SDS011;44310;48.106;12.008;2022-12-11T11:51:36;5.60;;;4.45;;
58518;SDS011;44310;48.106;12.008;2022-12-11T11:54:21;6.17;;;4.30;;
58518;SDS011;44310;48.106;12.008;2022-12-11T11:57:04;9.55;;;4.53;;
58518;SDS011;44310;48.106;12.008;2022-12-11T12:00:06;19.77;;;6.33;;
58518;SDS011;44310;48.106;12.008;2022-12-11T12:02:40;10.23;;;5.13;;
58518;SDS011;44310;48.106;12.008;2022-12-11T12:05:11;16.27;;;5.20;;
58518;SDS011;44310;48.106;12.008;2022-12-11T12:10:20;17.65;;;6.25;;
58518;SDS011;44310;48.106;12.008;2022-12-11T12:16:16;9.53;;;4.47;;
58518;SDS011;44310;48.106;12.008;2022-12-11T12:19:14;13.65;;;5.07;;
58518;SDS011;44310;48.106;12.008;2022-12-11T12:21:56;13.45;;;4.93;;
58518;SDS011;44310;48.106;12.008;2022-12-11T12:24:36;18.87;;;5.67;;
58518;SDS011;44310;48.106;12.008;2022-12-11T12:27:17;31.52;;;8.20;;
58518;SDS011;44310;48.106;12.008;2022-12-11T12:30:16;24.20;;;6.93;;
58518;SDS011;44310;48.106;12.008;2022-12-11T12:39:00;18.17;;;5.82;;
58518;SDS011;44310;48.106;12.008;2022-12-11T12:41:53;14.52;;;5.72;;
58518;SDS011;44310;48.106;12.008;2022-12-11T12:44:39;30.23;;;7.38;;
58518;SDS011;44310;48.106;12.008;2022-12-11T12:47:16;24.38;;;7.50;;
58518;SDS011;44310;48.106;12.008;2022-12-11T12:49:48;29.23;;;7.70;;
58518;SDS011;44310;48.106;12.008;2022-12-11T12:52:18;22.17;;;7.00;;
58518;SDS011;44310;48.106;12.008;2022-12-11T12:54:52;33.30;;;7.87;;
58518;SDS011;44310;48.106;12.008;2022-12-11T12:58:03;44.85;;;11.07;;
58518;SDS011;44310;48.106;12.008;2022-12-11T13:03:24;25.55;;;7.70;;
58518;SDS011;44310;48.106;12.008;2022-12-11T13:05:58;22.20;;;7.35;;
58518;SDS011;44310;48.106;12.008;2022-12-11T13:08:39;22.58;;;7.15;;
58518;SDS011;44310;48.106;12.008;2022-12-11T13:11:09;38.38;;;11.30;;
58518;SDS011;44310;48.106;12.008;2022-12-11T13:13:39;47.63;;;11.27;;
58518;SDS011;44310;48.106;12.008;2022-12-11T13:16:37;37.70;;;9.13;;
58518;SDS011;44310;48.106;12.008;2022-12-11T13:22:18;20.05;;;6.00;;
58518;SDS011;44310;48.106;12.008;2022-12-11T13:27:26;97.70;;;19.40;;
58518;SDS011;44310;48.106;12.008;2022-12-11T13:33:00;66.00;;;15.18;;
58518;SDS011;44310;48.106;12.008;2022-12-11T13:35:28;87.73;;;17.33;;
58518;SDS011;44310;48.106;12.008;2022-12-11T13:38:02;66.50;;;16.08;;
58518;SDS011;44310;48.106;12.008;2022-12-11T13:40:35;61.20;;;14.07;;
58518;SDS011;44310;48.106;12.008;2022-12-11T13:43:17;48.88;;;13.18;;
58518;SDS011;44310;48.106;12.008;2022-12-11T13:45:48;58.63;;;13.53;;
58518;SDS011;44310;48.106;12.008;2022-12-11T13:48:22;92.18;;;18.42;;
58518;SDS011;44310;48.106;12.008;2022-12-11T13:51:13;102.35;;;22.20;;
58518;SDS011;44310;48.106;12.008;2022-12-11T13:53:43;104.03;;;22.33;;
58518;SDS011;44310;48.106;12.008;2022-12-11T13:56:17;102.73;;;21.43;;
58518;SDS011;44310;48.106;12.008;2022-12-11T13:58:46;92.55;;;18.80;;
58518;SDS011;44310;48.106;12.008;2022-12-11T14:01:26;103.13;;;20.93;;
58518;SDS011;44310;48.106;12.008;2022-12-11T14:06:30;76.28;;;15.68;;
58518;SDS011;44310;48.106;12.008;2022-12-11T14:09:00;77.30;;;17.07;;
58518;SDS011;44310;48.106;12.008;2022-12-11T14:11:30;81.10;;;17.10;;
58518;SDS011;44310;48.106;12.008;2022-12-11T14:14:01;72.93;;;17.45;;
58518;SDS011;44310;48.106;12.008;2022-12-11T14:16:32;77.00;;;16.92;;
58518;SDS011;44310;48.106;12.008;2022-12-11T14:19:02;78.03;;;16.98;;
58518;SDS011;44310;48.106;12.008;2022-12-11T14:21:32;76.93;;;17.45;;
58518;SDS011;44310;48.106;12.008;2022-12-11T14:24:00;67.70;;;16.33;;
58518;SDS011;44310;48.106;12.008;2022-12-11T14:26:29;70.13;;;15.45;;
58518;SDS011;44310;48.106;12.008;2022-12-11T14:28:59;56.65;;;13.25;;
58518;SDS011;44310;48.106;12.008;2022-12-11T14:31:41;54.78;;;13.82;;
58518;SDS011;44310;48.106;12.008;2022-12-11T14:36:42;40.08;;;9.63;;
58518;SDS011;44310;48.106;12.008;2022-12-11T14:42:22;39.42;;;9.60;;
58518;SDS011;44310;48.106;12.008;2022-12-11T14:44:54;119.53;;;23.02;;
58518;SDS011;44310;48.106;12.008;2022-12-11T14:47:26;56.15;;;13.80;;
58518;SDS011;44310;48.106;12.008;2022-12-11T14:50:02;41.30;;;10.98;;
58518;SDS011;44310;48.106;12.008;2022-12-11T14:52:50;26.48;;;7.32;;
58518;SDS011;44310;48.106;12.008;2022-12-11T14:57:52;14.20;;;5.90;;
58518;SDS011;44310;48.106;12.008;2022-12-11T15:00:39;11.30;;;4.57;;
58518;SDS011;44310;48.106;12.008;2022-12-11T15:05:53;10.98;;;4.50;;
58518;SDS011;44310;48.106;12.008;2022-12-11T15:08:26;14.98;;;4.55;;
58518;SDS011;44310;48.106;12.008;2022-12-11T15:13:23;18.80;;;5.00;;
58518;SDS011;44310;48.106;12.008;2022-12-11T15:15:50;14.13;;;4.07;;
58518;SDS011;44310;48.106;12.008;2022-12-11T15:18:20;22.17;;;7.18;;
58518;SDS011;44310;48.106;12.008;2022-12-11T15:21:00;39.65;;;9.02;;
58518;SDS011;44310;48.106;12.008;2022-12-11T15:23:33;37.58;;;8.50;;
58518;SDS011;44310;48.106;12.008;2022-12-11T15:26:11;81.93;;;15.60;;
58518;SDS011;44310;48.106;12.008;2022-12-11T15:28:38;103.40;;;22.80;;
58518;SDS011;44310;48.106;12.008;2022-12-11T15:31:27;101.80;;;20.58;;
58518;SDS011;44310;48.106;12.008;2022-12-11T15:33:57;86.03;;;16.63;;
58518;SDS011;44310;48.106;12.008;2022-12-11T15:36:32;58.67;;;13.10;;
58518;SDS011;44310;48.106;12.008;2022-12-11T15:39:01;39.88;;;9.65;;
58518;SDS011;44310;48.106;12.008;2022-12-11T15:41:31;44.83;;;10.20;;
58518;SDS011;44310;48.106;12.008;2022-12-11T15:44:00;35.90;;;7.95;;
58518;SDS011;44310;48.106;12.008;2022-12-11T15:46:29;32.45;;;7.68;;
58518;SDS011;44310;48.106;12.008;2022-12-11T15:49:04;31.87;;;6.87;;
58518;SDS011;44310;48.106;12.008;2022-12-11T15:51:38;21.58;;;6.13;;
58518;SDS011;44310;48.106;12.008;2022-12-11T15:54:09;24.75;;;5.32;;
58518;SDS011;44310;48.106;12.008;2022-12-11T15:56:36;25.42;;;6.93;;
58518;SDS011;44310;48.106;12.008;2022-12-11T15:59:03;24.67;;;6.38;;
58518;SDS011;44310;48.106;12.008;2022-12-11T16:01:32;19.13;;;6.05;;
58518;SDS011;44310;48.106;12.008;2022-12-11T16:04:00;23.88;;;5.50;;
58518;SDS011;44310;48.106;12.008;2022-12-11T16:06:31;22.67;;;6.05;;
58518;SDS011;44310;48.106;12.008;2022-12-11T16:08:58;20.23;;;5.30;;
58518;SDS011;44310;48.106;12.008;2022-12-11T16:11:26;19.63;;;6.13;;
58518;SDS011;44310;48.106;12.008;2022-12-11T16:13:53;18.27;;;6.18;;
58518;SDS011;44310;48.106;12.008;2022-12-11T16:16:20;23.00;;;5.50;;
58518;SDS011;44310;48.106;12.008;2022-12-11T16:18:48;19.57;;;5.90;;
58518;SDS011;44310;48.106;12.008;2022-12-11T16:21:15;23.08;;;5.68;;
58518;SDS011;44310;48.106;12.008;2022-12-11T16:23:47;19.67;;;5.78;;
58518;SDS011;44310;48.106;12.008;2022-12-11T16:26:14;17.98;;;5.20;;